createdAt,value
2018-02-18T00:00:51.095Z,98203.22
2018-02-18T00:03:22.055Z,98208.04
2018-02-18T00:05:53.037Z,98206.66
2018-02-18T00:08:24.045Z,98201.95
2018-02-18T00:10:55.130Z,98210.23
2018-02-18T00:13:26.151Z,98212.73
2018-02-18T00:15:57.231Z,98215.44
2018-02-18T00:18:28.253Z,98219.51
2018-02-18T00:20:59.249Z,98220.98
2018-02-18T00:23:30.227Z,98226.25
2018-02-18T00:26:01.257Z,98224.48
2018-02-18T00:28:32.288Z,98227.90
2018-02-18T00:31:03.310Z,98234.41
2018-02-18T00:33:34.283Z,98237.55
2018-02-18T00:36:05.277Z,98250.25
2018-02-18T00:38:36.257Z,98243.31
2018-02-18T00:41:07.276Z,98252.73
2018-02-18T00:43:38.288Z,98254.22
2018-02-18T00:46:09.283Z,98261.23
2018-02-18T00:48:40.270Z,98259.36
2018-02-18T00:51:11.299Z,98262.02
2018-02-18T00:53:42.338Z,98269.77
2018-02-18T00:56:13.315Z,98268.70
2018-02-18T00:58:44.329Z,98277.66
2018-02-18T01:01:15.370Z,98269.91
2018-02-18T01:03:46.366Z,98276.53
2018-02-18T01:06:17.351Z,98275.95
2018-02-18T01:08:48.355Z,98275.12
2018-02-18T01:11:19.346Z,98276.19
2018-02-18T01:13:50.339Z,98279.71
2018-02-18T01:16:21.346Z,98281.53
2018-02-18T01:18:52.334Z,98282.78
2018-02-18T01:21:23.351Z,98287.41
2018-02-18T01:23:54.343Z,98293.36
2018-02-18T01:26:25.318Z,98294.66
2018-02-18T01:28:56.357Z,98294.84
2018-02-18T01:31:27.471Z,98296.83
2018-02-18T01:33:58.467Z,98294.98
2018-02-18T01:36:29.473Z,98296.69
2018-02-18T01:39:00.465Z,98294.98
2018-02-18T01:41:31.497Z,98297.64
2018-02-18T01:44:02.483Z,98294.98
2018-02-18T01:46:33.491Z,98299.93
2018-02-18T01:49:04.517Z,98301.40
2018-02-18T01:51:35.554Z,98303.57
2018-02-18T01:54:06.559Z,98306.84
2018-02-18T01:56:37.580Z,98305.88
2018-02-18T01:59:08.613Z,98312.39
2018-02-18T02:01:39.613Z,98317.11
2018-02-18T02:04:10.601Z,98308.78
2018-02-18T02:06:41.569Z,98310.16
2018-02-18T02:09:12.608Z,98311.17
2018-02-18T02:11:43.664Z,98306.11
2018-02-18T02:14:14.704Z,98307.77
2018-02-18T02:16:45.692Z,98308.48
2018-02-18T02:19:16.661Z,98308.72
2018-02-18T02:21:47.699Z,98314.99
2018-02-18T02:24:18.718Z,98313.57
2018-02-18T02:26:49.747Z,98318.38
2018-02-18T02:29:20.727Z,98320.25
2018-02-18T02:31:51.757Z,98322.67
2018-02-18T02:34:22.794Z,98322.09
2018-02-18T02:36:53.811Z,98325.04
2018-02-18T02:39:24.999Z,98327.06
2018-02-18T02:41:58.823Z,98331.53
2018-02-18T02:44:29.885Z,98337.13
2018-02-18T02:47:00.882Z,98340.99
2018-02-18T02:49:31.890Z,98340.95
2018-02-18T02:52:02.920Z,98348.77
2018-02-18T02:54:33.897Z,98342.58
2018-02-18T02:57:04.940Z,98345.45
2018-02-18T02:59:35.906Z,98337.41
2018-02-18T03:02:06.913Z,98345.69
2018-02-18T03:04:37.910Z,98341.30
2018-02-18T03:07:08.969Z,98338.61
2018-02-18T03:09:39.989Z,98344.98
2018-02-18T03:12:10.984Z,98342.31
2018-02-18T03:14:41.972Z,98347.63
2018-02-18T03:17:12.961Z,98347.24
2018-02-18T03:19:44.033Z,98346.13
2018-02-18T03:22:15.000Z,98353.20
2018-02-18T03:24:46.004Z,98345.08
2018-02-18T03:27:16.986Z,98342.42
2018-02-18T03:29:48.001Z,98349.81
2018-02-18T03:32:19.004Z,98347.66
2018-02-18T03:34:50.044Z,98345.81
2018-02-18T03:37:21.040Z,98353.91
2018-02-18T03:39:51.998Z,98357.07
2018-02-18T03:42:22.995Z,98359.45
2018-02-18T03:44:53.978Z,98360.99
2018-02-18T03:47:25.022Z,98362.30
2018-02-18T03:49:56.044Z,98363.27
2018-02-18T03:52:27.002Z,98366.41
2018-02-18T03:54:57.969Z,98365.62
2018-02-18T03:57:28.974Z,98367.26
2018-02-18T03:59:59.943Z,98368.83
2018-02-18T04:02:30.957Z,98372.38
2018-02-18T04:05:01.978Z,98372.17
2018-02-18T04:07:32.969Z,98367.02
2018-02-18T04:10:03.961Z,98375.05
2018-02-18T04:12:34.958Z,98376.15
2018-02-18T04:15:05.971Z,98374.80
2018-02-18T04:17:36.985Z,98372.89
2018-02-18T04:20:08.022Z,98372.52
2018-02-18T04:22:39.029Z,98362.75
2018-02-18T04:25:10.023Z,98363.56
2018-02-18T04:27:41.059Z,98368.41
2018-02-18T04:30:12.085Z,98370.59
2018-02-18T04:32:43.071Z,98374.05
2018-02-18T04:35:14.078Z,98378.18
2018-02-18T04:37:45.060Z,98385.56
2018-02-18T04:40:16.029Z,98389.84
2018-02-18T04:42:47.030Z,98391.22
2018-02-18T04:45:17.972Z,98393.55
2018-02-18T04:47:48.964Z,98400.28
2018-02-18T04:50:19.949Z,98396.88
2018-02-18T04:52:50.935Z,98396.89
2018-02-18T04:55:22.008Z,98396.59
2018-02-18T04:57:52.996Z,98396.59
2018-02-18T05:00:23.976Z,98404.31
2018-02-18T05:03:02.042Z,98403.73
2018-02-18T05:05:33.013Z,98400.43
2018-02-18T05:08:04.060Z,98400.27
2018-02-18T05:10:35.012Z,98408.05
2018-02-18T05:13:05.963Z,98400.05
2018-02-18T05:15:36.983Z,98403.13
2018-02-18T05:18:08.021Z,98407.48
2018-02-18T05:20:39.047Z,98406.93
2018-02-18T05:23:10.048Z,98408.08
2018-02-18T05:25:41.077Z,98407.92
2018-02-18T05:28:12.068Z,98412.48
2018-02-18T05:30:43.037Z,98414.66
2018-02-18T05:33:14.054Z,98424.13
2018-02-18T05:35:45.047Z,98422.04
2018-02-18T05:38:16.016Z,98420.30
2018-02-18T05:40:46.974Z,98427.36
2018-02-18T05:43:18.006Z,98432.52
2018-02-18T05:45:49.011Z,98437.91
2018-02-18T05:48:20.034Z,98440.69
2018-02-18T05:50:51.000Z,98445.36
2018-02-18T05:53:22.037Z,98444.52
2018-02-18T05:55:53.057Z,98443.44
2018-02-18T05:58:24.041Z,98443.77
2018-02-18T06:01:02.158Z,98445.47
2018-02-18T06:03:33.139Z,98446.73
2018-02-18T06:06:04.170Z,98444.67
2018-02-18T06:08:35.180Z,98444.23
2018-02-18T06:11:06.203Z,98445.42
2018-02-18T06:13:37.215Z,98455.54
2018-02-18T06:16:08.213Z,98459.97
2018-02-18T06:18:39.213Z,98453.84
2018-02-18T06:21:10.228Z,98460.87
2018-02-18T06:23:41.256Z,98460.30
2018-02-18T06:26:12.260Z,98464.08
2018-02-18T06:28:43.291Z,98460.26
2018-02-18T06:31:14.300Z,98468.42
2018-02-18T06:33:45.279Z,98470.20
2018-02-18T06:36:16.284Z,98471.30
2018-02-18T06:38:47.282Z,98469.30
2018-02-18T06:41:18.274Z,98474.58
2018-02-18T06:43:49.264Z,98473.11
2018-02-18T06:46:20.217Z,98478.80
2018-02-18T06:48:51.227Z,98477.52
2018-02-18T06:51:22.204Z,98476.94
2018-02-18T06:53:53.184Z,98470.47
2018-02-18T06:56:24.199Z,98479.20
2018-02-18T06:58:55.182Z,98472.54
2018-02-18T07:01:26.186Z,98469.14
2018-02-18T07:03:57.208Z,98465.83
2018-02-18T07:06:28.201Z,98467.47
2018-02-18T07:08:59.258Z,98467.56
2018-02-18T07:11:30.263Z,98468.87
2018-02-18T07:14:01.274Z,98475.50
2018-02-18T07:16:32.269Z,98477.63
2018-02-18T07:19:03.288Z,98469.45
2018-02-18T07:21:34.256Z,98478.07
2018-02-18T07:24:05.249Z,98473.64
2018-02-18T07:26:36.260Z,98473.11
2018-02-18T07:29:07.248Z,98481.63
2018-02-18T07:31:38.230Z,98476.12
2018-02-18T07:34:09.272Z,98479.89
2018-02-18T07:36:40.284Z,98481.05
2018-02-18T07:39:11.275Z,98482.50
2018-02-18T07:41:42.268Z,98472.94
2018-02-18T07:44:13.275Z,98478.68
2018-02-18T07:46:44.287Z,98479.02
2018-02-18T07:49:15.323Z,98481.36
2018-02-18T07:51:46.369Z,98484.72
2018-02-18T07:54:17.413Z,98481.49
2018-02-18T07:56:48.516Z,98482.73
2018-02-18T07:59:19.539Z,98490.66
2018-02-18T08:01:50.577Z,98495.23
2018-02-18T08:04:21.750Z,98496.82
2018-02-18T08:06:52.747Z,98496.77
2018-02-18T08:09:23.813Z,98497.00
2018-02-18T08:11:54.811Z,98495.59
2018-02-18T08:14:25.845Z,98495.23
2018-02-18T08:16:56.855Z,98500.08
2018-02-18T08:19:27.868Z,98497.70
2018-02-18T08:21:58.875Z,98504.45
2018-02-18T08:24:29.949Z,98502.33
2018-02-18T08:27:00.939Z,98499.13
2018-02-18T08:29:31.991Z,98499.22
2018-02-18T08:32:03.002Z,98500.20
2018-02-18T08:34:34.104Z,98500.30
2018-02-18T08:37:05.086Z,98497.53
2018-02-18T08:39:36.118Z,98490.89
2018-02-18T08:42:07.123Z,98495.62
2018-02-18T08:44:38.136Z,98493.03
2018-02-18T08:47:09.143Z,98489.77
2018-02-18T08:49:40.175Z,98494.11
2018-02-18T08:52:11.197Z,98493.52
2018-02-18T08:54:42.236Z,98499.06
2018-02-18T08:57:13.193Z,98500.68
2018-02-18T08:59:44.249Z,98502.89
2018-02-18T09:02:15.215Z,98503.05
2018-02-18T09:04:46.292Z,98502.17
2018-02-18T09:07:17.440Z,98503.22
2018-02-18T09:09:55.532Z,98504.73
2018-02-18T09:12:33.339Z,98503.48
2018-02-18T09:15:04.328Z,98507.76
2018-02-18T09:17:35.318Z,98507.39
2018-02-18T09:20:06.320Z,98503.17
2018-02-18T09:22:37.369Z,98509.64
2018-02-18T09:25:08.375Z,98510.45
2018-02-18T09:27:39.458Z,98508.43
2018-02-18T09:30:10.440Z,98508.02
2018-02-18T09:32:41.452Z,98510.08
2018-02-18T09:35:12.443Z,98507.73
2018-02-18T09:37:43.475Z,98516.11
2018-02-18T09:40:14.504Z,98514.79
2018-02-18T09:42:45.592Z,98514.36
2018-02-18T09:45:16.574Z,98519.52
2018-02-18T09:47:47.620Z,98510.36
2018-02-18T09:50:18.593Z,98517.41
2018-02-18T09:52:49.632Z,98528.64
2018-02-18T09:55:20.641Z,98532.13
2018-02-18T09:57:51.641Z,98536.94
2018-02-18T10:00:22.620Z,98542.88
2018-02-18T10:02:53.644Z,98538.30
2018-02-18T10:05:24.631Z,98539.99
2018-02-18T10:07:55.691Z,98544.20
2018-02-18T10:10:26.705Z,98543.17
2018-02-18T10:12:58.699Z,98535.05
2018-02-18T10:15:29.708Z,98533.57
2018-02-18T10:18:00.763Z,98532.03
2018-02-18T10:20:31.722Z,98530.42
2018-02-18T10:23:02.744Z,98529.46
2018-02-18T10:25:33.755Z,98527.66
2018-02-18T10:28:04.773Z,98532.06
2018-02-18T10:30:35.781Z,98528.75
2018-02-18T10:33:06.793Z,98530.59
2018-02-18T10:35:37.818Z,98521.79
2018-02-18T10:38:08.887Z,98525.04
2018-02-18T10:40:39.879Z,98520.20
2018-02-18T10:43:10.875Z,98522.47
2018-02-18T10:45:41.873Z,98518.58
2018-02-18T10:48:12.864Z,98519.73
2018-02-18T10:50:43.980Z,98515.59
2018-02-18T10:53:14.964Z,98522.87
2018-02-18T10:55:46.079Z,98518.06
2018-02-18T10:58:17.100Z,98521.47
2018-02-18T11:00:48.092Z,98509.20
2018-02-18T11:03:19.087Z,98513.36
2018-02-18T11:05:50.040Z,98514.55
2018-02-18T11:08:21.083Z,98507.02
2018-02-18T11:10:52.157Z,98498.50
2018-02-18T11:13:23.140Z,98500.31
2018-02-18T11:15:54.168Z,98498.72
2018-02-18T11:18:25.172Z,98493.61
2018-02-18T11:20:56.204Z,98492.05
2018-02-18T11:23:27.246Z,98482.92
2018-02-18T11:25:58.284Z,98481.67
2018-02-18T11:28:29.236Z,98483.53
2018-02-18T11:31:00.264Z,98483.49
2018-02-18T11:33:31.357Z,98481.84
2018-02-18T11:36:02.373Z,98487.70
2018-02-18T11:38:33.460Z,98480.67
2018-02-18T11:41:04.485Z,98474.13
2018-02-18T11:43:35.468Z,98476.44
2018-02-18T11:46:06.447Z,98477.77
2018-02-18T11:48:37.411Z,98473.13
2018-02-18T11:51:08.409Z,98466.03
2018-02-18T11:53:39.412Z,98472.16
2018-02-18T11:56:10.439Z,98466.70
2018-02-18T11:58:41.485Z,98466.29
2018-02-18T12:01:12.481Z,98456.49
2018-02-18T12:03:43.496Z,98459.73
2018-02-18T12:06:14.562Z,98458.55
2018-02-18T12:08:45.561Z,98456.88
2018-02-18T12:11:16.628Z,98456.23
2018-02-18T12:13:47.629Z,98463.31
2018-02-18T12:16:18.649Z,98469.09
2018-02-18T12:18:49.633Z,98465.64
2018-02-18T12:21:20.640Z,98458.11
2018-02-18T12:23:51.620Z,98471.45
2018-02-18T12:26:22.622Z,98470.30
2018-02-18T12:28:53.616Z,98476.17
2018-02-18T12:31:25.414Z,98473.86
2018-02-18T12:33:56.407Z,98474.59
2018-02-18T12:36:27.430Z,98474.44
2018-02-18T12:38:58.410Z,98469.77
2018-02-18T12:41:30.186Z,98473.48
2018-02-18T12:44:01.212Z,98468.55
2018-02-18T12:46:32.239Z,98465.22
2018-02-18T12:49:03.248Z,98465.88
2018-02-18T12:51:34.251Z,98462.27
2018-02-18T12:54:05.227Z,98454.77
2018-02-18T12:56:36.208Z,98445.63
2018-02-18T12:59:07.180Z,98445.78
2018-02-18T13:01:38.161Z,98442.50
2018-02-18T13:04:09.163Z,98448.30
2018-02-18T13:06:40.148Z,98447.14
2018-02-18T13:09:11.134Z,98448.35
2018-02-18T13:11:42.082Z,98456.17
2018-02-18T13:14:13.055Z,98452.35
2018-02-18T13:16:44.035Z,98459.38
2018-02-18T13:19:15.119Z,98447.75
2018-02-18T13:21:46.122Z,98448.67
2018-02-18T13:24:17.126Z,98452.33
2018-02-18T13:26:48.135Z,98444.31
2018-02-18T13:29:19.172Z,98444.60
2018-02-18T13:31:50.136Z,98441.23
2018-02-18T13:34:21.121Z,98451.06
2018-02-18T13:36:52.169Z,98461.53
2018-02-18T13:39:23.176Z,98463.69
2018-02-18T13:41:54.244Z,98456.72
2018-02-18T13:44:25.242Z,98463.45
2018-02-18T13:46:56.237Z,98459.95
2018-02-18T13:49:27.238Z,98459.70
2018-02-18T13:51:58.257Z,98452.20
2018-02-18T13:54:29.256Z,98449.86
2018-02-18T13:57:00.254Z,98444.94
2018-02-18T13:59:31.306Z,98449.34
2018-02-18T14:02:02.271Z,98442.20
2018-02-18T14:04:34.880Z,98450.77
2018-02-18T14:07:05.848Z,98449.09
2018-02-18T14:09:36.833Z,98460.19
2018-02-18T14:12:07.813Z,98464.12
2018-02-18T14:14:38.854Z,98462.98
2018-02-18T14:17:09.879Z,98465.00
2018-02-18T14:19:40.888Z,98467.90
2018-02-18T14:22:11.919Z,98463.56
2018-02-18T14:24:42.930Z,98464.95
2018-02-18T14:27:13.965Z,98465.44
2018-02-18T14:29:44.935Z,98462.77
2018-02-18T14:32:15.995Z,98457.05
2018-02-18T14:34:47.034Z,98462.48
2018-02-18T14:37:18.038Z,98457.55
2018-02-18T14:39:49.107Z,98459.45
2018-02-18T14:42:32.384Z,98463.68
2018-02-18T14:45:15.632Z,98455.51
2018-02-18T14:47:58.826Z,98460.03
2018-02-18T14:50:42.257Z,98459.33
2018-02-18T14:53:25.365Z,98467.34
2018-02-18T14:56:08.741Z,98467.15
2018-02-18T14:58:39.708Z,98467.27
2018-02-18T15:01:10.739Z,98466.76
2018-02-18T15:03:41.780Z,98469.09
2018-02-18T15:06:12.811Z,98466.39
2018-02-18T15:08:43.818Z,98467.73
2018-02-18T15:11:14.867Z,98471.67
2018-02-18T15:13:45.880Z,98472.91
2018-02-18T15:16:16.891Z,98466.58
2018-02-18T15:18:47.892Z,98467.66
2018-02-18T15:21:18.905Z,98468.14
2018-02-18T15:23:49.943Z,98468.78
2018-02-18T15:26:20.932Z,98466.12
2018-02-18T15:28:51.918Z,98462.09
2018-02-18T15:31:22.933Z,98460.27
2018-02-18T15:33:53.961Z,98462.00
2018-02-18T15:36:25.003Z,98458.89
2018-02-18T15:38:55.981Z,98450.35
2018-02-18T15:41:26.994Z,98456.19
2018-02-18T15:43:57.978Z,98453.56
2018-02-18T15:46:29.020Z,98452.69
2018-02-18T15:48:59.996Z,98455.28
2018-02-18T15:51:31.020Z,98459.22
2018-02-18T15:54:02.034Z,98453.77
2018-02-18T15:56:33.053Z,98456.47
2018-02-18T15:59:04.077Z,98455.27
2018-02-18T16:01:35.042Z,98463.22
2018-02-18T16:04:06.069Z,98456.56
2018-02-18T16:06:37.547Z,98458.39
2018-02-18T16:09:08.544Z,98450.28
2018-02-18T16:11:39.551Z,98446.95
2018-02-18T16:14:10.577Z,98444.95
2018-02-18T16:16:41.630Z,98454.98
2018-02-18T16:19:12.616Z,98449.66
2018-02-18T16:21:43.633Z,98453.23
2018-02-18T16:24:14.640Z,98451.55
2018-02-18T16:26:45.669Z,98458.02
2018-02-18T16:29:16.703Z,98452.03
2018-02-18T16:31:47.719Z,98451.34
2018-02-18T16:34:18.786Z,98453.25
2018-02-18T16:36:49.744Z,98455.14
2018-02-18T16:39:20.719Z,98457.38
2018-02-18T16:41:51.757Z,98448.02
2018-02-18T16:44:22.758Z,98450.41
2018-02-18T16:46:53.735Z,98449.20
2018-02-18T16:49:24.763Z,98455.81
2018-02-18T16:51:55.738Z,98461.05
2018-02-18T16:54:26.764Z,98461.98
2018-02-18T16:56:57.793Z,98462.65
2018-02-18T16:59:28.881Z,98466.36
2018-02-18T17:01:59.879Z,98464.81
2018-02-18T17:04:30.873Z,98471.22
2018-02-18T17:07:01.882Z,98470.56
2018-02-18T17:09:32.890Z,98463.86
2018-02-18T17:12:03.892Z,98465.16
2018-02-18T17:14:34.953Z,98454.78
2018-02-18T17:17:05.989Z,98454.40
2018-02-18T17:19:37.005Z,98456.31
2018-02-18T17:22:08.032Z,98451.49
2018-02-18T17:24:39.004Z,98454.31
2018-02-18T17:27:10.046Z,98452.94
2018-02-18T17:29:41.087Z,98454.13
2018-02-18T17:32:12.135Z,98460.77
2018-02-18T17:34:43.142Z,98447.28
2018-02-18T17:37:14.135Z,98447.65
2018-02-18T17:39:45.298Z,98446.07
2018-02-18T17:42:16.339Z,98448.28
2018-02-18T17:44:47.345Z,98451.33
2018-02-18T17:47:18.397Z,98449.67
2018-02-18T17:49:49.414Z,98452.56
2018-02-18T17:52:20.421Z,98448.23
2018-02-18T17:54:51.435Z,98453.55
2018-02-18T17:57:22.457Z,98453.20
2018-02-18T17:59:53.529Z,98458.88
2018-02-18T18:02:24.560Z,98460.81
2018-02-18T18:04:55.583Z,98467.53
2018-02-18T18:07:26.580Z,98464.60
2018-02-18T18:09:57.614Z,98463.82
2018-02-18T18:12:28.597Z,98463.69
2018-02-18T18:14:59.641Z,98462.48
2018-02-18T18:17:30.665Z,98465.11
2018-02-18T18:20:01.696Z,98460.19
2018-02-18T18:22:32.697Z,98459.62
2018-02-18T18:25:03.658Z,98459.61
2018-02-18T18:27:34.716Z,98454.91
2018-02-18T18:30:05.762Z,98450.31
2018-02-18T18:32:36.793Z,98440.94
2018-02-18T18:35:07.841Z,98445.38
2018-02-18T18:37:38.878Z,98438.04
2018-02-18T18:40:09.935Z,98439.14
2018-02-18T18:42:40.909Z,98433.45
2018-02-18T18:45:11.956Z,98436.44
2018-02-18T18:47:42.941Z,98435.77
2018-02-18T18:50:13.999Z,98427.88
2018-02-18T18:52:44.964Z,98434.61
2018-02-18T18:55:15.998Z,98433.88
2018-02-18T18:57:46.979Z,98433.52
2018-02-18T19:00:18.056Z,98434.02
2018-02-18T19:02:48.975Z,98426.19
2018-02-18T19:05:20.124Z,98425.55
2018-02-18T19:07:51.117Z,98423.47
2018-02-18T19:10:22.117Z,98422.63
2018-02-18T19:12:53.118Z,98417.97
2018-02-18T19:15:24.096Z,98414.31
2018-02-18T19:17:55.112Z,98421.64
2018-02-18T19:20:26.083Z,98419.39
2018-02-18T19:22:57.106Z,98412.39
2018-02-18T19:25:28.109Z,98413.44
2018-02-18T19:27:59.101Z,98408.63
2018-02-18T19:30:30.168Z,98405.56
2018-02-18T19:33:01.168Z,98401.31
2018-02-18T19:35:32.171Z,98400.48
2018-02-18T19:38:03.167Z,98399.95
2018-02-18T19:40:34.195Z,98393.14
2018-02-18T19:43:05.203Z,98406.50
2018-02-18T19:45:36.273Z,98394.02
2018-02-18T19:48:07.289Z,98403.11
2018-02-18T19:50:38.334Z,98402.27
2018-02-18T19:53:09.309Z,98397.59
2018-02-18T19:55:40.417Z,98399.80
2018-02-18T19:58:11.399Z,98397.85
2018-02-18T20:00:42.380Z,98396.83
2018-02-18T20:03:13.355Z,98396.94
2018-02-18T20:05:44.362Z,98395.66
2018-02-18T20:08:15.338Z,98393.34
2018-02-18T20:10:46.365Z,98393.20
2018-02-18T20:13:17.411Z,98390.12
2018-02-18T20:15:48.435Z,98382.28
2018-02-18T20:18:19.380Z,98379.92
2018-02-18T20:20:50.428Z,98372.16
2018-02-18T20:23:21.509Z,98376.13
2018-02-18T20:25:52.503Z,98373.53
2018-02-18T20:28:23.594Z,98365.45
2018-02-18T20:30:54.585Z,98356.45
2018-02-18T20:33:25.632Z,98360.26
2018-02-18T20:35:56.609Z,98348.93
2018-02-18T20:38:27.674Z,98348.59
2018-02-18T20:40:58.619Z,98349.59
2018-02-18T20:43:29.635Z,98342.78
2018-02-18T20:46:00.662Z,98335.67
2018-02-18T20:48:31.679Z,98335.53
2018-02-18T20:51:02.674Z,98338.52
2018-02-18T20:53:33.699Z,98340.09
2018-02-18T20:56:04.758Z,98339.94
2018-02-18T20:58:35.791Z,98334.50
2018-02-18T21:01:06.808Z,98342.16
2018-02-18T21:03:37.800Z,98341.50
2018-02-18T21:06:08.809Z,98340.95
2018-02-18T21:08:39.806Z,98335.12
2018-02-18T21:11:10.844Z,98329.94
2018-02-18T21:13:41.880Z,98331.47
2018-02-18T21:16:12.833Z,98332.63
2018-02-18T21:18:43.843Z,98325.16
2018-02-18T21:21:14.849Z,98325.18
2018-02-18T21:23:45.835Z,98322.88
2018-02-18T21:26:16.870Z,98315.38
2018-02-18T21:28:47.853Z,98308.66
2018-02-18T21:31:18.873Z,98317.33
2018-02-18T21:33:49.863Z,98314.31
2018-02-18T21:36:21.025Z,98307.28
2018-02-18T21:38:52.016Z,98299.59
2018-02-18T21:41:22.979Z,98305.56
2018-02-18T21:44:00.920Z,98292.78
2018-02-18T21:46:31.930Z,98298.61
2018-02-18T21:49:02.944Z,98296.69
2018-02-18T21:51:33.935Z,98290.36
2018-02-18T21:54:04.926Z,98285.27
2018-02-18T21:56:35.922Z,98280.48
2018-02-18T21:59:07.057Z,98286.47
2018-02-18T22:01:38.060Z,98288.43
2018-02-18T22:04:09.081Z,98290.19
2018-02-18T22:06:40.037Z,98287.84
2018-02-18T22:09:11.047Z,98283.63
2018-02-18T22:11:42.055Z,98280.72
2018-02-18T22:14:13.059Z,98271.44
2018-02-18T22:16:44.039Z,98271.19
2018-02-18T22:19:15.049Z,98270.38
2018-02-18T22:21:45.997Z,98270.05
2018-02-18T22:24:17.049Z,98271.98
2018-02-18T22:26:48.071Z,98265.75
2018-02-18T22:29:19.040Z,98258.70
2018-02-18T22:31:50.056Z,98255.00
2018-02-18T22:34:21.043Z,98249.72
2018-02-18T22:36:52.048Z,98247.77
2018-02-18T22:39:23.004Z,98246.66
2018-02-18T22:41:54.032Z,98250.36
2018-02-18T22:44:25.007Z,98241.38
2018-02-18T22:46:56.049Z,98238.23
2018-02-18T22:49:27.050Z,98231.77
2018-02-18T22:51:58.086Z,98225.94
2018-02-18T22:54:29.048Z,98224.01
2018-02-18T22:57:00.066Z,98224.25
2018-02-18T22:59:31.189Z,98220.67
2018-02-18T23:02:02.261Z,98218.23
2018-02-18T23:04:33.269Z,98232.44
2018-02-18T23:07:07.168Z,98231.25
2018-02-18T23:09:38.155Z,98223.73
2018-02-18T23:12:09.177Z,98231.71
2018-02-18T23:14:40.220Z,98231.97
2018-02-18T23:17:11.212Z,98237.22
2018-02-18T23:19:42.235Z,98239.39
2018-02-18T23:22:13.209Z,98239.45
2018-02-18T23:24:44.201Z,98241.85
2018-02-18T23:27:15.206Z,98236.45
2018-02-18T23:29:46.156Z,98238.78
2018-02-18T23:32:17.175Z,98237.45
2018-02-18T23:34:48.137Z,98232.31
2018-02-18T23:37:19.181Z,98237.27
2018-02-18T23:39:50.250Z,98235.97
2018-02-18T23:42:21.240Z,98235.72
2018-02-18T23:44:52.277Z,98229.14
2018-02-18T23:47:23.249Z,98221.39
2018-02-18T23:49:54.266Z,98224.20
2018-02-18T23:52:25.199Z,98221.05
2018-02-18T23:54:56.187Z,98223.09
2018-02-18T23:57:27.186Z,98217.99
2018-02-18T23:59:58.373Z,98218.98
